Terminal Aerodrome Forecast
Issued by NWS

Current Version | Previous Version | Text Only | Print | Product List | Glossary Off
Versions: 1 2 3 4 5 6 7 8 9 10 11 12 13 14 15 16 17 18 19 20 21 22 23

000
FTUS41 KILN 191727
TAFLCK
TAF
KLCK 191727Z 1918/2018 19006KT 4SM -SHRA BR BKN090
     FM192200 18004KT P6SM VCSH BKN110
     FM200300 VRB03KT P6SM BKN140
     FM200800 VRB03KT 5SM BR SCT025
     FM200900 00000KT 2SM BR BKN015
     FM201400 24006KT P6SM BKN035=

USA.gov is the U.S. government's official web portal to all federal, state and local government web resources and services.